sensor_id;sensor_type;location;lat;lon;timestamp;temperature;humidity
64209;DHT22;50527;52.414;13.226;2023-03-20T00:00:24;11.20;99.90
64209;DHT22;50527;52.414;13.226;2023-03-20T00:02:50;11.10;99.90
64209;DHT22;50527;52.414;13.226;2023-03-20T00:05:18;11.10;99.90
64209;DHT22;50527;52.414;13.226;2023-03-20T00:07:46;11.00;99.90
64209;DHT22;50527;52.414;13.226;2023-03-20T00:10:12;11.10;99.90
64209;DHT22;50527;52.414;13.226;2023-03-20T00:12:37;11.00;99.90
64209;DHT22;50527;52.414;13.226;2023-03-20T00:15:06;11.00;99.90
64209;DHT22;50527;52.414;13.226;2023-03-20T00:17:32;11.00;99.90
64209;DHT22;50527;52.414;13.226;2023-03-20T00:19:58;10.90;99.90
64209;DHT22;50527;52.414;13.226;2023-03-20T00:22:23;10.80;99.90
64209;DHT22;50527;52.414;13.226;2023-03-20T00:24:49;10.90;99.90
64209;DHT22;50527;52.414;13.226;2023-03-20T00:27:15;10.80;99.90
64209;DHT22;50527;52.414;13.226;2023-03-20T00:29:42;10.80;99.90
64209;DHT22;50527;52.414;13.226;2023-03-20T00:32:10;10.90;99.90
64209;DHT22;50527;52.414;13.226;2023-03-20T00:34:37;10.80;99.90
64209;DHT22;50527;52.414;13.226;2023-03-20T00:37:03;10.80;99.90
64209;DHT22;50527;52.414;13.226;2023-03-20T00:39:29;10.80;99.90
64209;DHT22;50527;52.414;13.226;2023-03-20T00:42:03;10.80;99.90
64209;DHT22;50527;52.414;13.226;2023-03-20T00:44:35;10.90;99.90
64209;DHT22;50527;52.414;13.226;2023-03-20T00:47:11;10.90;99.90
64209;DHT22;50527;52.414;13.226;2023-03-20T00:49:37;10.90;99.90
64209;DHT22;50527;52.414;13.226;2023-03-20T00:52:05;10.80;99.90
64209;DHT22;50527;52.414;13.226;2023-03-20T00:54:31;10.80;99.90
64209;DHT22;50527;52.414;13.226;2023-03-20T00:56:59;10.70;99.90
64209;DHT22;50527;52.414;13.226;2023-03-20T00:59:29;10.60;99.90
64209;DHT22;50527;52.414;13.226;2023-03-20T01:01:55;10.50;99.90
64209;DHT22;50527;52.414;13.226;2023-03-20T01:04:21;10.60;99.90
64209;DHT22;50527;52.414;13.226;2023-03-20T01:06:47;10.60;99.90
64209;DHT22;50527;52.414;13.226;2023-03-20T01:09:12;10.70;99.90
64209;DHT22;50527;52.414;13.226;2023-03-20T01:11:39;10.70;99.90
64209;DHT22;50527;52.414;13.226;2023-03-20T01:14:11;10.70;99.90
64209;DHT22;50527;52.414;13.226;2023-03-20T01:16:37;10.80;99.90
64209;DHT22;50527;52.414;13.226;2023-03-20T01:19:03;10.90;99.90
64209;DHT22;50527;52.414;13.226;2023-03-20T01:21:28;10.90;99.90
64209;DHT22;50527;52.414;13.226;2023-03-20T01:23:54;10.70;99.90
64209;DHT22;50527;52.414;13.226;2023-03-20T01:26:23;10.70;99.90
64209;DHT22;50527;52.414;13.226;2023-03-20T01:28:51;10.70;99.90
64209;DHT22;50527;52.414;13.226;2023-03-20T01:31:17;10.70;99.90
64209;DHT22;50527;52.414;13.226;2023-03-20T01:33:43;10.70;99.90
64209;DHT22;50527;52.414;13.226;2023-03-20T01:36:10;10.70;99.90
64209;DHT22;50527;52.414;13.226;2023-03-20T01:38:36;10.80;99.90
64209;DHT22;50527;52.414;13.226;2023-03-20T01:41:15;10.80;99.90
64209;DHT22;50527;52.414;13.226;2023-03-20T01:43:42;10.80;99.90
64209;DHT22;50527;52.414;13.226;2023-03-20T01:51:18;10.70;99.90
64209;DHT22;50527;52.414;13.226;2023-03-20T01:53:47;10.70;99.90
64209;DHT22;50527;52.414;13.226;2023-03-20T01:56:14;10.60;99.90
64209;DHT22;50527;52.414;13.226;2023-03-20T01:58:44;10.60;99.90
64209;DHT22;50527;52.414;13.226;2023-03-20T02:01:12;10.60;99.90
64209;DHT22;50527;52.414;13.226;2023-03-20T02:03:39;10.60;99.90
64209;DHT22;50527;52.414;13.226;2023-03-20T02:06:07;10.60;99.90
64209;DHT22;50527;52.414;13.226;2023-03-20T02:08:39;10.70;99.90
64209;DHT22;50527;52.414;13.226;2023-03-20T02:11:06;10.60;99.90
64209;DHT22;50527;52.414;13.226;2023-03-20T02:13:32;10.70;99.90
64209;DHT22;50527;52.414;13.226;2023-03-20T02:16:03;10.70;99.90
64209;DHT22;50527;52.414;13.226;2023-03-20T02:18:29;10.60;99.90
64209;DHT22;50527;52.414;13.226;2023-03-20T02:23:52;10.60;99.90
64209;DHT22;50527;52.414;13.226;2023-03-20T02:26:30;10.60;99.90
64209;DHT22;50527;52.414;13.226;2023-03-20T02:29:21;10.50;99.90
64209;DHT22;50527;52.414;13.226;2023-03-20T02:32:31;10.40;99.90
64209;DHT22;50527;52.414;13.226;2023-03-20T02:38:02;10.40;99.90
64209;DHT22;50527;52.414;13.226;2023-03-20T02:43:42;10.50;99.90
64209;DHT22;50527;52.414;13.226;2023-03-20T02:46:35;10.60;99.90
64209;DHT22;50527;52.414;13.226;2023-03-20T02:52:32;10.60;99.90
64209;DHT22;50527;52.414;13.226;2023-03-20T02:55:26;10.50;99.90
64209;DHT22;50527;52.414;13.226;2023-03-20T02:57:56;10.50;99.90
64209;DHT22;50527;52.414;13.226;2023-03-20T03:00:37;10.50;99.90
64209;DHT22;50527;52.414;13.226;2023-03-20T03:03:10;10.50;99.90
64209;DHT22;50527;52.414;13.226;2023-03-20T03:05:42;10.50;99.90
64209;DHT22;50527;52.414;13.226;2023-03-20T03:08:11;10.60;99.90
64209;DHT22;50527;52.414;13.226;2023-03-20T03:10:48;10.60;99.90
64209;DHT22;50527;52.414;13.226;2023-03-20T03:13:19;10.70;99.90
64209;DHT22;50527;52.414;13.226;2023-03-20T03:15:48;10.80;99.90
64209;DHT22;50527;52.414;13.226;2023-03-20T03:18:19;10.80;99.90
64209;DHT22;50527;52.414;13.226;2023-03-20T03:20:47;10.70;99.90
64209;DHT22;50527;52.414;13.226;2023-03-20T03:23:33;10.70;99.90
64209;DHT22;50527;52.414;13.226;2023-03-20T03:26:01;10.70;99.90
64209;DHT22;50527;52.414;13.226;2023-03-20T03:28:35;10.70;99.90
64209;DHT22;50527;52.414;13.226;2023-03-20T03:31:10;10.70;99.90
64209;DHT22;50527;52.414;13.226;2023-03-20T03:33:39;10.60;99.90
64209;DHT22;50527;52.414;13.226;2023-03-20T03:36:26;10.60;99.90
64209;DHT22;50527;52.414;13.226;2023-03-20T03:41:39;10.60;99.90
64209;DHT22;50527;52.414;13.226;2023-03-20T03:44:25;10.60;99.90
64209;DHT22;50527;52.414;13.226;2023-03-20T03:47:10;10.50;99.90
64209;DHT22;50527;52.414;13.226;2023-03-20T03:49:41;10.40;99.90
64209;DHT22;50527;52.414;13.226;2023-03-20T03:52:15;10.50;99.90
64209;DHT22;50527;52.414;13.226;2023-03-20T03:54:59;10.60;99.90
64209;DHT22;50527;52.414;13.226;2023-03-20T03:57:33;10.60;99.90
64209;DHT22;50527;52.414;13.226;2023-03-20T04:00:02;10.50;99.90
64209;DHT22;50527;52.414;13.226;2023-03-20T04:02:30;10.50;99.90
64209;DHT22;50527;52.414;13.226;2023-03-20T04:04:58;10.50;99.90
64209;DHT22;50527;52.414;13.226;2023-03-20T04:07:27;10.60;99.90
64209;DHT22;50527;52.414;13.226;2023-03-20T04:09:53;10.50;99.90
64209;DHT22;50527;52.414;13.226;2023-03-20T04:12:38;10.50;99.90
64209;DHT22;50527;52.414;13.226;2023-03-20T04:15:04;10.40;99.90
64209;DHT22;50527;52.414;13.226;2023-03-20T04:17:30;10.60;99.90
64209;DHT22;50527;52.414;13.226;2023-03-20T04:19:56;10.50;99.90
64209;DHT22;50527;52.414;13.226;2023-03-20T04:22:22;10.60;99.90
64209;DHT22;50527;52.414;13.226;2023-03-20T04:24:48;10.60;99.90
64209;DHT22;50527;52.414;13.226;2023-03-20T04:27:14;10.50;99.90
64209;DHT22;50527;52.414;13.226;2023-03-20T04:29:39;10.50;99.90
64209;DHT22;50527;52.414;13.226;2023-03-20T04:32:05;10.50;99.90
64209;DHT22;50527;52.414;13.226;2023-03-20T04:34:31;10.50;99.90
64209;DHT22;50527;52.414;13.226;2023-03-20T04:36:57;10.50;99.90
64209;DHT22;50527;52.414;13.226;2023-03-20T04:39:22;10.50;99.90
64209;DHT22;50527;52.414;13.226;2023-03-20T04:41:48;10.60;99.90
64209;DHT22;50527;52.414;13.226;2023-03-20T04:44:13;10.60;99.90
64209;DHT22;50527;52.414;13.226;2023-03-20T04:46:39;10.60;99.90
64209;DHT22;50527;52.414;13.226;2023-03-20T04:49:04;10.50;99.90
64209;DHT22;50527;52.414;13.226;2023-03-20T04:51:30;10.60;99.90
64209;DHT22;50527;52.414;13.226;2023-03-20T04:53:55;10.50;99.90
64209;DHT22;50527;52.414;13.226;2023-03-20T04:56:21;10.50;99.90
64209;DHT22;50527;52.414;13.226;2023-03-20T04:58:46;10.50;99.90
64209;DHT22;50527;52.414;13.226;2023-03-20T05:01:12;10.50;99.90
64209;DHT22;50527;52.414;13.226;2023-03-20T05:03:37;10.50;99.90
64209;DHT22;50527;52.414;13.226;2023-03-20T05:06:03;10.40;99.90
64209;DHT22;50527;52.414;13.226;2023-03-20T05:08:30;10.40;99.90
64209;DHT22;50527;52.414;13.226;2023-03-20T05:10:55;10.40;99.90
64209;DHT22;50527;52.414;13.226;2023-03-20T05:13:21;10.30;99.90
64209;DHT22;50527;52.414;13.226;2023-03-20T05:15:46;10.20;99.90
64209;DHT22;50527;52.414;13.226;2023-03-20T05:18:12;10.30;99.90
64209;DHT22;50527;52.414;13.226;2023-03-20T05:20:38;10.30;99.90
64209;DHT22;50527;52.414;13.226;2023-03-20T05:23:03;10.30;99.90
64209;DHT22;50527;52.414;13.226;2023-03-20T05:25:29;10.40;99.90
64209;DHT22;50527;52.414;13.226;2023-03-20T05:27:54;10.40;99.90
64209;DHT22;50527;52.414;13.226;2023-03-20T05:30:20;10.30;99.90
64209;DHT22;50527;52.414;13.226;2023-03-20T05:32:49;10.50;99.90
64209;DHT22;50527;52.414;13.226;2023-03-20T05:35:15;10.50;99.90
64209;DHT22;50527;52.414;13.226;2023-03-20T05:37:40;10.50;99.90
64209;DHT22;50527;52.414;13.226;2023-03-20T05:40:08;10.50;99.90
64209;DHT22;50527;52.414;13.226;2023-03-20T05:42:35;10.50;99.90
64209;DHT22;50527;52.414;13.226;2023-03-20T05:45:00;10.60;99.90
64209;DHT22;50527;52.414;13.226;2023-03-20T05:47:26;10.60;99.90
64209;DHT22;50527;52.414;13.226;2023-03-20T05:49:51;10.60;99.90
64209;DHT22;50527;52.414;13.226;2023-03-20T05:52:17;10.60;99.90
64209;DHT22;50527;52.414;13.226;2023-03-20T05:54:43;10.60;99.90
64209;DHT22;50527;52.414;13.226;2023-03-20T05:57:08;10.50;99.90
64209;DHT22;50527;52.414;13.226;2023-03-20T05:59:33;10.60;99.90
64209;DHT22;50527;52.414;13.226;2023-03-20T06:01:59;10.60;99.90
64209;DHT22;50527;52.414;13.226;2023-03-20T06:04:25;10.60;99.90
64209;DHT22;50527;52.414;13.226;2023-03-20T06:06:50;10.60;99.90
64209;DHT22;50527;52.414;13.226;2023-03-20T06:09:16;10.60;99.90
64209;DHT22;50527;52.414;13.226;2023-03-20T06:11:41;10.60;99.90
64209;DHT22;50527;52.414;13.226;2023-03-20T06:14:07;10.60;99.90
64209;DHT22;50527;52.414;13.226;2023-03-20T06:16:32;10.60;99.90
64209;DHT22;50527;52.414;13.226;2023-03-20T06:18:58;10.60;99.90
64209;DHT22;50527;52.414;13.226;2023-03-20T06:21:23;10.50;99.90
64209;DHT22;50527;52.414;13.226;2023-03-20T06:23:49;10.50;99.90
64209;DHT22;50527;52.414;13.226;2023-03-20T06:26:14;10.50;99.90
64209;DHT22;50527;52.414;13.226;2023-03-20T06:28:40;10.50;99.90
64209;DHT22;50527;52.414;13.226;2023-03-20T06:31:06;10.50;99.90
64209;DHT22;50527;52.414;13.226;2023-03-20T06:33:33;10.50;99.90
64209;DHT22;50527;52.414;13.226;2023-03-20T06:35:58;10.50;99.90
64209;DHT22;50527;52.414;13.226;2023-03-20T06:38:24;10.50;99.90
64209;DHT22;50527;52.414;13.226;2023-03-20T06:40:50;10.40;99.90
64209;DHT22;50527;52.414;13.226;2023-03-20T06:43:15;10.40;99.90
64209;DHT22;50527;52.414;13.226;2023-03-20T06:45:41;10.40;99.90
64209;DHT22;50527;52.414;13.226;2023-03-20T06:48:07;10.20;99.90
64209;DHT22;50527;52.414;13.226;2023-03-20T06:50:33;10.20;99.90
64209;DHT22;50527;52.414;13.226;2023-03-20T06:52:58;10.20;99.90
64209;DHT22;50527;52.414;13.226;2023-03-20T06:55:24;10.20;99.90
64209;DHT22;50527;52.414;13.226;2023-03-20T06:57:50;10.20;99.90
64209;DHT22;50527;52.414;13.226;2023-03-20T07:00:15;10.20;99.90
64209;DHT22;50527;52.414;13.226;2023-03-20T07:02:41;10.10;99.90
64209;DHT22;50527;52.414;13.226;2023-03-20T07:05:07;10.10;99.90
64209;DHT22;50527;52.414;13.226;2023-03-20T07:07:34;10.20;99.90
64209;DHT22;50527;52.414;13.226;2023-03-20T07:10:00;10.10;99.90
64209;DHT22;50527;52.414;13.226;2023-03-20T07:12:25;10.20;99.90
64209;DHT22;50527;52.414;13.226;2023-03-20T07:14:53;10.10;99.90
64209;DHT22;50527;52.414;13.226;2023-03-20T07:17:18;10.10;99.90
64209;DHT22;50527;52.414;13.226;2023-03-20T07:19:44;10.00;99.90
64209;DHT22;50527;52.414;13.226;2023-03-20T07:22:19;10.00;99.90
64209;DHT22;50527;52.414;13.226;2023-03-20T07:24:46;10.00;99.90
64209;DHT22;50527;52.414;13.226;2023-03-20T07:27:11;10.00;99.90
64209;DHT22;50527;52.414;13.226;2023-03-20T07:29:36;10.00;99.90
64209;DHT22;50527;52.414;13.226;2023-03-20T07:32:02;10.00;99.90
64209;DHT22;50527;52.414;13.226;2023-03-20T07:34:28;10.10;99.90
64209;DHT22;50527;52.414;13.226;2023-03-20T07:36:53;10.00;99.90
64209;DHT22;50527;52.414;13.226;2023-03-20T07:39:19;10.20;99.90
64209;DHT22;50527;52.414;13.226;2023-03-20T07:41:44;10.20;99.90
64209;DHT22;50527;52.414;13.226;2023-03-20T07:44:10;10.20;99.90
64209;DHT22;50527;52.414;13.226;2023-03-20T07:46:36;10.30;99.90
64209;DHT22;50527;52.414;13.226;2023-03-20T07:49:01;10.40;99.90
64209;DHT22;50527;52.414;13.226;2023-03-20T07:51:27;10.40;99.90
64209;DHT22;50527;52.414;13.226;2023-03-20T07:53:52;10.50;99.90
64209;DHT22;50527;52.414;13.226;2023-03-20T07:56:18;10.60;99.90
64209;DHT22;50527;52.414;13.226;2023-03-20T07:58:43;10.90;99.90
64209;DHT22;50527;52.414;13.226;2023-03-20T08:01:09;11.00;99.90
64209;DHT22;50527;52.414;13.226;2023-03-20T08:03:34;11.00;99.90
64209;DHT22;50527;52.414;13.226;2023-03-20T08:05:59;11.10;99.90
64209;DHT22;50527;52.414;13.226;2023-03-20T08:08:26;11.00;99.90
64209;DHT22;50527;52.414;13.226;2023-03-20T08:10:51;11.00;99.90
64209;DHT22;50527;52.414;13.226;2023-03-20T08:13:17;11.00;99.90
64209;DHT22;50527;52.414;13.226;2023-03-20T08:15:42;11.00;99.90
64209;DHT22;50527;52.414;13.226;2023-03-20T08:18:07;10.90;99.90
64209;DHT22;50527;52.414;13.226;2023-03-20T08:20:33;10.90;99.90
64209;DHT22;50527;52.414;13.226;2023-03-20T08:22:58;10.80;99.90
64209;DHT22;50527;52.414;13.226;2023-03-20T08:25:24;10.80;99.90
64209;DHT22;50527;52.414;13.226;2023-03-20T08:27:49;10.80;99.90
64209;DHT22;50527;52.414;13.226;2023-03-20T08:30:15;10.80;99.90
64209;DHT22;50527;52.414;13.226;2023-03-20T08:32:41;10.70;99.90
64209;DHT22;50527;52.414;13.226;2023-03-20T08:35:07;10.80;99.90
64209;DHT22;50527;52.414;13.226;2023-03-20T08:37:34;11.20;99.90
64209;DHT22;50527;52.414;13.226;2023-03-20T08:39:59;11.90;99.90
64209;DHT22;50527;52.414;13.226;2023-03-20T08:42:25;13.50;96.50
64209;DHT22;50527;52.414;13.226;2023-03-20T08:44:50;14.30;91.00
64209;DHT22;50527;52.414;13.226;2023-03-20T08:47:16;15.10;86.80
64209;DHT22;50527;52.414;13.226;2023-03-20T08:49:41;15.00;85.10
64209;DHT22;50527;52.414;13.226;2023-03-20T08:52:07;14.80;82.10
64209;DHT22;50527;52.414;13.226;2023-03-20T08:54:33;14.60;86.50
64209;DHT22;50527;52.414;13.226;2023-03-20T08:56:58;15.00;83.70
64209;DHT22;50527;52.414;13.226;2023-03-20T08:59:24;14.90;80.40
64209;DHT22;50527;52.414;13.226;2023-03-20T09:01:49;14.20;82.10
64209;DHT22;50527;52.414;13.226;2023-03-20T09:04:15;13.90;85.00
64209;DHT22;50527;52.414;13.226;2023-03-20T09:06:40;13.50;89.70
64209;DHT22;50527;52.414;13.226;2023-03-20T09:09:06;13.20;88.50
64209;DHT22;50527;52.414;13.226;2023-03-20T09:11:32;12.80;90.60
64209;DHT22;50527;52.414;13.226;2023-03-20T09:13:58;12.40;91.60
64209;DHT22;50527;52.414;13.226;2023-03-20T09:16:24;12.40;92.60
64209;DHT22;50527;52.414;13.226;2023-03-20T09:18:49;12.60;91.40
64209;DHT22;50527;52.414;13.226;2023-03-20T09:21:15;12.80;90.90
64209;DHT22;50527;52.414;13.226;2023-03-20T09:23:40;12.90;91.10
64209;DHT22;50527;52.414;13.226;2023-03-20T09:26:06;12.90;90.70
64209;DHT22;50527;52.414;13.226;2023-03-20T09:28:31;12.80;90.80
64209;DHT22;50527;52.414;13.226;2023-03-20T09:30:57;12.70;90.60
64209;DHT22;50527;52.414;13.226;2023-03-20T09:33:24;12.70;91.00
64209;DHT22;50527;52.414;13.226;2023-03-20T09:35:50;12.70;91.20
64209;DHT22;50527;52.414;13.226;2023-03-20T09:38:16;12.70;91.00
64209;DHT22;50527;52.414;13.226;2023-03-20T09:41:06;12.90;91.00
64209;DHT22;50527;52.414;13.226;2023-03-20T09:43:57;13.10;89.80
64209;DHT22;50527;52.414;13.226;2023-03-20T09:52:31;14.10;83.40
64209;DHT22;50527;52.414;13.226;2023-03-20T09:55:07;14.00;82.70
64209;DHT22;50527;52.414;13.226;2023-03-20T09:57:41;13.70;84.40
64209;DHT22;50527;52.414;13.226;2023-03-20T10:00:19;13.50;81.10
64209;DHT22;50527;52.414;13.226;2023-03-20T10:02:57;13.30;83.10
64209;DHT22;50527;52.414;13.226;2023-03-20T10:05:25;13.20;85.40
64209;DHT22;50527;52.414;13.226;2023-03-20T10:07:57;13.10;84.10
64209;DHT22;50527;52.414;13.226;2023-03-20T10:13:29;12.90;84.60
64209;DHT22;50527;52.414;13.226;2023-03-20T10:21:45;13.00;83.50
64209;DHT22;50527;52.414;13.226;2023-03-20T10:24:21;13.10;86.00
64209;DHT22;50527;52.414;13.226;2023-03-20T10:26:51;13.20;83.00
64209;DHT22;50527;52.414;13.226;2023-03-20T10:29:48;12.90;85.50
64209;DHT22;50527;52.414;13.226;2023-03-20T10:35:45;12.70;86.00
64209;DHT22;50527;52.414;13.226;2023-03-20T10:40:47;12.50;88.10
64209;DHT22;50527;52.414;13.226;2023-03-20T10:43:25;12.60;89.70
64209;DHT22;50527;52.414;13.226;2023-03-20T10:46:07;12.70;87.10
64209;DHT22;50527;52.414;13.226;2023-03-20T10:48:49;12.70;87.50
64209;DHT22;50527;52.414;13.226;2023-03-20T10:51:21;12.70;86.30
64209;DHT22;50527;52.414;13.226;2023-03-20T10:53:50;12.60;86.30
64209;DHT22;50527;52.414;13.226;2023-03-20T10:56:31;12.60;87.30
64209;DHT22;50527;52.414;13.226;2023-03-20T10:59:07;12.60;85.60
64209;DHT22;50527;52.414;13.226;2023-03-20T11:01:34;12.60;87.10
64209;DHT22;50527;52.414;13.226;2023-03-20T11:04:00;12.60;86.00
64209;DHT22;50527;52.414;13.226;2023-03-20T11:06:31;12.70;85.50
64209;DHT22;50527;52.414;13.226;2023-03-20T11:09:11;12.70;86.30
64209;DHT22;50527;52.414;13.226;2023-03-20T11:11:47;12.80;86.60
64209;DHT22;50527;52.414;13.226;2023-03-20T11:14:20;12.80;86.90
64209;DHT22;50527;52.414;13.226;2023-03-20T11:16:48;12.70;87.00
64209;DHT22;50527;52.414;13.226;2023-03-20T11:19:15;12.60;87.40
64209;DHT22;50527;52.414;13.226;2023-03-20T11:21:54;12.60;86.70
64209;DHT22;50527;52.414;13.226;2023-03-20T11:27:06;12.50;88.80
64209;DHT22;50527;52.414;13.226;2023-03-20T11:29:32;12.50;88.50
64209;DHT22;50527;52.414;13.226;2023-03-20T11:32:31;12.50;88.50
64209;DHT22;50527;52.414;13.226;2023-03-20T11:35:19;12.50;89.50
64209;DHT22;50527;52.414;13.226;2023-03-20T11:37:49;12.60;88.50
64209;DHT22;50527;52.414;13.226;2023-03-20T11:40:23;12.70;87.30
64209;DHT22;50527;52.414;13.226;2023-03-20T11:42:54;12.80;88.20
64209;DHT22;50527;52.414;13.226;2023-03-20T11:45:20;12.80;87.00
64209;DHT22;50527;52.414;13.226;2023-03-20T11:47:55;13.00;86.50
64209;DHT22;50527;52.414;13.226;2023-03-20T11:50:32;13.30;85.20
64209;DHT22;50527;52.414;13.226;2023-03-20T11:53:16;13.50;81.60
64209;DHT22;50527;52.414;13.226;2023-03-20T11:55:55;13.50;79.70
64209;DHT22;50527;52.414;13.226;2023-03-20T11:58:22;13.30;81.00
64209;DHT22;50527;52.414;13.226;2023-03-20T12:00:50;13.20;82.80
64209;DHT22;50527;52.414;13.226;2023-03-20T12:03:45;13.10;83.00
64209;DHT22;50527;52.414;13.226;2023-03-20T12:06:24;13.00;82.70
64209;DHT22;50527;52.414;13.226;2023-03-20T12:08:59;12.80;81.40
64209;DHT22;50527;52.414;13.226;2023-03-20T12:11:49;12.80;82.50
64209;DHT22;50527;52.414;13.226;2023-03-20T12:14:46;12.80;82.60
64209;DHT22;50527;52.414;13.226;2023-03-20T12:17:34;12.80;82.30
64209;DHT22;50527;52.414;13.226;2023-03-20T12:25:35;13.10;81.10
64209;DHT22;50527;52.414;13.226;2023-03-20T12:28:10;13.20;79.80
64209;DHT22;50527;52.414;13.226;2023-03-20T12:31:03;13.30;81.30
64209;DHT22;50527;52.414;13.226;2023-03-20T12:33:39;13.50;79.10
64209;DHT22;50527;52.414;13.226;2023-03-20T12:36:15;13.50;78.30
64209;DHT22;50527;52.414;13.226;2023-03-20T12:38:42;13.50;78.20
64209;DHT22;50527;52.414;13.226;2023-03-20T12:41:14;13.50;77.30
64209;DHT22;50527;52.414;13.226;2023-03-20T12:46:58;13.30;79.50
64209;DHT22;50527;52.414;13.226;2023-03-20T12:52:37;13.40;77.80
64209;DHT22;50527;52.414;13.226;2023-03-20T13:01:18;13.40;77.60
64209;DHT22;50527;52.414;13.226;2023-03-20T13:03:58;13.30;78.10
64209;DHT22;50527;52.414;13.226;2023-03-20T13:09:34;12.90;78.50
64209;DHT22;50527;52.414;13.226;2023-03-20T13:12:29;12.70;80.90
64209;DHT22;50527;52.414;13.226;2023-03-20T13:18:00;12.70;81.60
64209;DHT22;50527;52.414;13.226;2023-03-20T13:20:56;12.70;81.20
64209;DHT22;50527;52.414;13.226;2023-03-20T13:23:29;12.70;80.80
64209;DHT22;50527;52.414;13.226;2023-03-20T13:31:43;13.30;80.60
64209;DHT22;50527;52.414;13.226;2023-03-20T13:34:37;13.40;78.70
64209;DHT22;50527;52.414;13.226;2023-03-20T13:37:18;13.40;79.50
64209;DHT22;50527;52.414;13.226;2023-03-20T13:40:07;13.50;78.40
64209;DHT22;50527;52.414;13.226;2023-03-20T13:42:48;13.60;77.90
64209;DHT22;50527;52.414;13.226;2023-03-20T13:45:35;13.50;78.10
64209;DHT22;50527;52.414;13.226;2023-03-20T13:48:18;13.50;79.10
64209;DHT22;50527;52.414;13.226;2023-03-20T13:51:02;13.40;78.60
64209;DHT22;50527;52.414;13.226;2023-03-20T13:53:46;13.30;79.30
64209;DHT22;50527;52.414;13.226;2023-03-20T13:56:37;13.40;79.40
64209;DHT22;50527;52.414;13.226;2023-03-20T14:01:47;13.40;80.20
64209;DHT22;50527;52.414;13.226;2023-03-20T14:04:18;13.40;79.20
64209;DHT22;50527;52.414;13.226;2023-03-20T14:06:52;13.30;79.00
64209;DHT22;50527;52.414;13.226;2023-03-20T14:11:59;13.00;81.60
64209;DHT22;50527;52.414;13.226;2023-03-20T14:14:28;12.90;81.40
64209;DHT22;50527;52.414;13.226;2023-03-20T14:17:20;12.70;81.80
64209;DHT22;50527;52.414;13.226;2023-03-20T14:19:47;12.70;84.60
64209;DHT22;50527;52.414;13.226;2023-03-20T14:22:16;12.60;85.20
64209;DHT22;50527;52.414;13.226;2023-03-20T14:24:56;12.60;86.40
64209;DHT22;50527;52.414;13.226;2023-03-20T14:27:26;12.50;87.20
64209;DHT22;50527;52.414;13.226;2023-03-20T14:29:51;12.40;88.80
64209;DHT22;50527;52.414;13.226;2023-03-20T14:34:48;12.40;88.80
64209;DHT22;50527;52.414;13.226;2023-03-20T14:37:34;12.40;91.10
64209;DHT22;50527;52.414;13.226;2023-03-20T14:40:13;12.40;91.50
64209;DHT22;50527;52.414;13.226;2023-03-20T14:42:50;12.50;92.50
64209;DHT22;50527;52.414;13.226;2023-03-20T14:45:40;12.40;91.90
64209;DHT22;50527;52.414;13.226;2023-03-20T14:53:52;12.40;91.50
64209;DHT22;50527;52.414;13.226;2023-03-20T14:56:28;12.40;91.20
64209;DHT22;50527;52.414;13.226;2023-03-20T14:58:58;12.30;91.70
64209;DHT22;50527;52.414;13.226;2023-03-20T15:01:33;12.30;91.80
64209;DHT22;50527;52.414;13.226;2023-03-20T15:04:06;12.40;91.60
64209;DHT22;50527;52.414;13.226;2023-03-20T15:06:33;12.50;91.30
64209;DHT22;50527;52.414;13.226;2023-03-20T15:09:04;12.60;90.70
64209;DHT22;50527;52.414;13.226;2023-03-20T15:11:32;12.70;90.70
64209;DHT22;50527;52.414;13.226;2023-03-20T15:13:59;12.70;90.40
64209;DHT22;50527;52.414;13.226;2023-03-20T15:16:30;12.70;90.10
64209;DHT22;50527;52.414;13.226;2023-03-20T15:18:57;12.70;89.00
64209;DHT22;50527;52.414;13.226;2023-03-20T15:21:52;12.70;89.50
64209;DHT22;50527;52.414;13.226;2023-03-20T15:24:26;12.70;87.40
64209;DHT22;50527;52.414;13.226;2023-03-20T15:26:58;12.60;88.50
64209;DHT22;50527;52.414;13.226;2023-03-20T15:29:25;12.60;89.40
64209;DHT22;50527;52.414;13.226;2023-03-20T15:31:56;12.60;88.60
64209;DHT22;50527;52.414;13.226;2023-03-20T15:34:26;12.60;89.00
64209;DHT22;50527;52.414;13.226;2023-03-20T15:36:58;12.50;89.20
64209;DHT22;50527;52.414;13.226;2023-03-20T15:39:27;12.50;88.90
64209;DHT22;50527;52.414;13.226;2023-03-20T15:41:57;12.50;89.00
64209;DHT22;50527;52.414;13.226;2023-03-20T15:44:26;12.50;89.80
64209;DHT22;50527;52.414;13.226;2023-03-20T15:47:22;12.40;90.30
64209;DHT22;50527;52.414;13.226;2023-03-20T15:49:58;12.40;90.40
64209;DHT22;50527;52.414;13.226;2023-03-20T15:52:45;12.30;90.60
64209;DHT22;50527;52.414;13.226;2023-03-20T15:55:19;12.30;90.10
64209;DHT22;50527;52.414;13.226;2023-03-20T15:57:46;12.30;90.40
64209;DHT22;50527;52.414;13.226;2023-03-20T16:00:15;12.40;88.60
64209;DHT22;50527;52.414;13.226;2023-03-20T16:02:44;12.30;90.20
64209;DHT22;50527;52.414;13.226;2023-03-20T16:05:12;12.30;90.40
64209;DHT22;50527;52.414;13.226;2023-03-20T16:07:38;12.10;90.00
64209;DHT22;50527;52.414;13.226;2023-03-20T16:10:26;12.20;90.90
64209;DHT22;50527;52.414;13.226;2023-03-20T16:12:52;12.30;90.40
64209;DHT22;50527;52.414;13.226;2023-03-20T16:15:23;12.30;90.70
64209;DHT22;50527;52.414;13.226;2023-03-20T16:17:51;12.30;91.00
64209;DHT22;50527;52.414;13.226;2023-03-20T16:20:18;12.30;90.50
64209;DHT22;50527;52.414;13.226;2023-03-20T16:22:45;12.20;90.20
64209;DHT22;50527;52.414;13.226;2023-03-20T16:25:15;12.10;90.10
64209;DHT22;50527;52.414;13.226;2023-03-20T16:27:41;12.00;90.40
64209;DHT22;50527;52.414;13.226;2023-03-20T16:30:18;12.10;90.90
64209;DHT22;50527;52.414;13.226;2023-03-20T16:32:47;12.10;89.40
64209;DHT22;50527;52.414;13.226;2023-03-20T16:35:20;12.20;90.50
64209;DHT22;50527;52.414;13.226;2023-03-20T16:37:52;12.10;90.60
64209;DHT22;50527;52.414;13.226;2023-03-20T16:42:53;11.90;90.30
64209;DHT22;50527;52.414;13.226;2023-03-20T16:45:32;11.90;90.40
64209;DHT22;50527;52.414;13.226;2023-03-20T16:50:37;12.00;91.20
64209;DHT22;50527;52.414;13.226;2023-03-20T16:53:10;12.00;91.20
64209;DHT22;50527;52.414;13.226;2023-03-20T16:55:41;11.90;91.60
64209;DHT22;50527;52.414;13.226;2023-03-20T16:58:08;11.90;91.50
64209;DHT22;50527;52.414;13.226;2023-03-20T17:00:59;12.00;91.20
64209;DHT22;50527;52.414;13.226;2023-03-20T17:03:34;11.90;91.30
64209;DHT22;50527;52.414;13.226;2023-03-20T17:06:07;11.90;92.00
64209;DHT22;50527;52.414;13.226;2023-03-20T17:08:37;12.00;92.00